sensor_id;sensor_type;location;lat;lon;timestamp;P1;durP1;ratioP1;P2;durP2;ratioP2
11893;SDS011;6006;49.696;8.662;2024-01-30T00:01:02;3.23;;;2.50;;
11893;SDS011;6006;49.696;8.662;2024-01-30T00:03:29;2.30;;;2.03;;
11893;SDS011;6006;49.696;8.662;2024-01-30T00:05:56;4.30;;;2.13;;
11893;SDS011;6006;49.696;8.662;2024-01-30T00:08:24;1.87;;;1.70;;
11893;SDS011;6006;49.696;8.662;2024-01-30T00:10:51;2.00;;;1.80;;
11893;SDS011;6006;49.696;8.662;2024-01-30T00:13:18;2.10;;;1.90;;
11893;SDS011;6006;49.696;8.662;2024-01-30T00:15:45;4.03;;;1.90;;
11893;SDS011;6006;49.696;8.662;2024-01-30T00:18:12;1.80;;;1.70;;
11893;SDS011;6006;49.696;8.662;2024-01-30T00:20:38;2.60;;;1.80;;
11893;SDS011;6006;49.696;8.662;2024-01-30T00:23:05;1.87;;;1.77;;
11893;SDS011;6006;49.696;8.662;2024-01-30T00:25:34;2.30;;;2.10;;
11893;SDS011;6006;49.696;8.662;2024-01-30T00:28:00;1.67;;;1.47;;
11893;SDS011;6006;49.696;8.662;2024-01-30T00:30:27;2.37;;;1.70;;
11893;SDS011;6006;49.696;8.662;2024-01-30T00:32:54;3.00;;;1.70;;
11893;SDS011;6006;49.696;8.662;2024-01-30T00:35:21;3.13;;;1.73;;
11893;SDS011;6006;49.696;8.662;2024-01-30T00:37:48;1.80;;;1.70;;
11893;SDS011;6006;49.696;8.662;2024-01-30T00:40:15;1.43;;;1.30;;
11893;SDS011;6006;49.696;8.662;2024-01-30T00:42:44;3.33;;;1.87;;
11893;SDS011;6006;49.696;8.662;2024-01-30T00:45:13;1.20;;;1.13;;
11893;SDS011;6006;49.696;8.662;2024-01-30T00:47:40;3.10;;;1.87;;
11893;SDS011;6006;49.696;8.662;2024-01-30T00:50:07;1.70;;;1.60;;
11893;SDS011;6006;49.696;8.662;2024-01-30T00:52:35;2.67;;;1.83;;
11893;SDS011;6006;49.696;8.662;2024-01-30T00:55:04;3.00;;;1.97;;
11893;SDS011;6006;49.696;8.662;2024-01-30T00:57:31;1.67;;;1.57;;
11893;SDS011;6006;49.696;8.662;2024-01-30T01:00:00;1.73;;;1.57;;
11893;SDS011;6006;49.696;8.662;2024-01-30T01:02:27;2.70;;;2.27;;
11893;SDS011;6006;49.696;8.662;2024-01-30T01:04:53;1.70;;;1.60;;
11893;SDS011;6006;49.696;8.662;2024-01-30T01:07:20;2.73;;;1.83;;
11893;SDS011;6006;49.696;8.662;2024-01-30T01:09:47;2.87;;;1.60;;
11893;SDS011;6006;49.696;8.662;2024-01-30T01:12:14;2.23;;;2.03;;
11893;SDS011;6006;49.696;8.662;2024-01-30T01:14:41;2.93;;;1.90;;
11893;SDS011;6006;49.696;8.662;2024-01-30T01:17:09;2.00;;;1.70;;
11893;SDS011;6006;49.696;8.662;2024-01-30T01:19:35;2.27;;;2.03;;
11893;SDS011;6006;49.696;8.662;2024-01-30T01:22:02;4.07;;;2.20;;
11893;SDS011;6006;49.696;8.662;2024-01-30T01:24:30;2.50;;;2.30;;
11893;SDS011;6006;49.696;8.662;2024-01-30T01:26:58;2.17;;;1.97;;
11893;SDS011;6006;49.696;8.662;2024-01-30T01:29:24;4.93;;;2.90;;
11893;SDS011;6006;49.696;8.662;2024-01-30T01:31:53;2.20;;;1.67;;
11893;SDS011;6006;49.696;8.662;2024-01-30T01:34:22;2.60;;;1.87;;
11893;SDS011;6006;49.696;8.662;2024-01-30T01:36:49;1.93;;;1.43;;
11893;SDS011;6006;49.696;8.662;2024-01-30T01:39:16;2.27;;;1.23;;
11893;SDS011;6006;49.696;8.662;2024-01-30T01:41:43;3.30;;;2.00;;
11893;SDS011;6006;49.696;8.662;2024-01-30T01:44:10;3.17;;;2.07;;
11893;SDS011;6006;49.696;8.662;2024-01-30T01:46:37;5.10;;;1.70;;
11893;SDS011;6006;49.696;8.662;2024-01-30T01:49:04;4.57;;;2.40;;
11893;SDS011;6006;49.696;8.662;2024-01-30T01:51:35;2.37;;;1.60;;
11893;SDS011;6006;49.696;8.662;2024-01-30T01:54:03;3.73;;;2.23;;
11893;SDS011;6006;49.696;8.662;2024-01-30T01:56:30;2.37;;;1.80;;
11893;SDS011;6006;49.696;8.662;2024-01-30T01:58:59;2.50;;;1.73;;
11893;SDS011;6006;49.696;8.662;2024-01-30T02:01:29;2.50;;;2.23;;
11893;SDS011;6006;49.696;8.662;2024-01-30T02:03:58;1.63;;;1.53;;
11893;SDS011;6006;49.696;8.662;2024-01-30T02:06:25;2.03;;;1.83;;
11893;SDS011;6006;49.696;8.662;2024-01-30T02:08:54;3.63;;;1.70;;
11893;SDS011;6006;49.696;8.662;2024-01-30T02:11:21;1.60;;;1.40;;
11893;SDS011;6006;49.696;8.662;2024-01-30T02:13:49;1.80;;;1.67;;
11893;SDS011;6006;49.696;8.662;2024-01-30T02:16:16;1.53;;;1.17;;
11893;SDS011;6006;49.696;8.662;2024-01-30T02:18:43;1.37;;;1.13;;
11893;SDS011;6006;49.696;8.662;2024-01-30T02:21:14;1.30;;;1.30;;
11893;SDS011;6006;49.696;8.662;2024-01-30T02:23:42;1.90;;;1.70;;
11893;SDS011;6006;49.696;8.662;2024-01-30T02:26:10;1.00;;;1.00;;
11893;SDS011;6006;49.696;8.662;2024-01-30T02:28:37;1.93;;;1.50;;
11893;SDS011;6006;49.696;8.662;2024-01-30T02:31:05;1.17;;;1.07;;
11893;SDS011;6006;49.696;8.662;2024-01-30T02:33:31;1.40;;;1.27;;
11893;SDS011;6006;49.696;8.662;2024-01-30T02:35:58;1.23;;;1.13;;
11893;SDS011;6006;49.696;8.662;2024-01-30T02:38:27;0.97;;;0.90;;
11893;SDS011;6006;49.696;8.662;2024-01-30T02:40:54;1.50;;;1.40;;
11893;SDS011;6006;49.696;8.662;2024-01-30T02:43:21;1.33;;;1.23;;
11893;SDS011;6006;49.696;8.662;2024-01-30T02:45:48;1.47;;;1.37;;
11893;SDS011;6006;49.696;8.662;2024-01-30T02:48:15;1.50;;;1.40;;
11893;SDS011;6006;49.696;8.662;2024-01-30T02:50:42;2.13;;;1.60;;
11893;SDS011;6006;49.696;8.662;2024-01-30T02:53:09;1.27;;;1.07;;
11893;SDS011;6006;49.696;8.662;2024-01-30T02:55:37;1.50;;;1.20;;
11893;SDS011;6006;49.696;8.662;2024-01-30T02:58:04;3.10;;;1.30;;
11893;SDS011;6006;49.696;8.662;2024-01-30T03:00:32;1.50;;;1.40;;
11893;SDS011;6006;49.696;8.662;2024-01-30T03:02:59;1.80;;;1.07;;
11893;SDS011;6006;49.696;8.662;2024-01-30T03:05:26;2.13;;;1.40;;
11893;SDS011;6006;49.696;8.662;2024-01-30T03:07:52;1.17;;;1.03;;
11893;SDS011;6006;49.696;8.662;2024-01-30T03:10:19;1.57;;;1.10;;
11893;SDS011;6006;49.696;8.662;2024-01-30T03:12:47;2.60;;;1.90;;
11893;SDS011;6006;49.696;8.662;2024-01-30T03:15:14;1.47;;;1.13;;
11893;SDS011;6006;49.696;8.662;2024-01-30T03:17:41;1.20;;;1.10;;
11893;SDS011;6006;49.696;8.662;2024-01-30T03:20:08;1.63;;;1.37;;
11893;SDS011;6006;49.696;8.662;2024-01-30T03:22:36;1.93;;;1.50;;
11893;SDS011;6006;49.696;8.662;2024-01-30T03:25:03;1.50;;;1.37;;
11893;SDS011;6006;49.696;8.662;2024-01-30T03:27:31;1.47;;;1.37;;
11893;SDS011;6006;49.696;8.662;2024-01-30T03:29:59;1.80;;;1.47;;
11893;SDS011;6006;49.696;8.662;2024-01-30T03:32:26;2.10;;;1.23;;
11893;SDS011;6006;49.696;8.662;2024-01-30T03:34:53;2.07;;;1.50;;
11893;SDS011;6006;49.696;8.662;2024-01-30T03:37:20;1.97;;;1.60;;
11893;SDS011;6006;49.696;8.662;2024-01-30T03:39:47;1.67;;;1.43;;
11893;SDS011;6006;49.696;8.662;2024-01-30T03:42:14;1.43;;;1.13;;
11893;SDS011;6006;49.696;8.662;2024-01-30T03:44:41;1.77;;;1.23;;
11893;SDS011;6006;49.696;8.662;2024-01-30T03:47:10;1.57;;;1.30;;
11893;SDS011;6006;49.696;8.662;2024-01-30T03:49:37;1.53;;;1.43;;
11893;SDS011;6006;49.696;8.662;2024-01-30T03:52:04;3.70;;;1.57;;
11893;SDS011;6006;49.696;8.662;2024-01-30T03:54:31;1.80;;;1.47;;
11893;SDS011;6006;49.696;8.662;2024-01-30T03:56:57;1.73;;;1.67;;
11893;SDS011;6006;49.696;8.662;2024-01-30T03:59:24;1.17;;;1.00;;
11893;SDS011;6006;49.696;8.662;2024-01-30T04:01:51;5.07;;;2.13;;
11893;SDS011;6006;49.696;8.662;2024-01-30T04:04:19;1.10;;;1.10;;
11893;SDS011;6006;49.696;8.662;2024-01-30T04:06:47;2.10;;;1.33;;
11893;SDS011;6006;49.696;8.662;2024-01-30T04:09:14;4.07;;;2.03;;
11893;SDS011;6006;49.696;8.662;2024-01-30T04:11:41;1.13;;;0.90;;
11893;SDS011;6006;49.696;8.662;2024-01-30T04:14:08;3.23;;;2.00;;
11893;SDS011;6006;49.696;8.662;2024-01-30T04:16:35;4.27;;;2.03;;
11893;SDS011;6006;49.696;8.662;2024-01-30T04:19:02;2.77;;;1.50;;
11893;SDS011;6006;49.696;8.662;2024-01-30T04:21:30;3.07;;;1.50;;
11893;SDS011;6006;49.696;8.662;2024-01-30T04:23:57;1.23;;;1.13;;
11893;SDS011;6006;49.696;8.662;2024-01-30T04:26:24;1.30;;;1.20;;
11893;SDS011;6006;49.696;8.662;2024-01-30T04:28:51;2.23;;;1.73;;
11893;SDS011;6006;49.696;8.662;2024-01-30T04:31:18;1.90;;;1.30;;
11893;SDS011;6006;49.696;8.662;2024-01-30T04:33:45;2.30;;;1.30;;
11893;SDS011;6006;49.696;8.662;2024-01-30T04:36:11;1.73;;;1.63;;
11893;SDS011;6006;49.696;8.662;2024-01-30T04:38:40;4.23;;;1.67;;
11893;SDS011;6006;49.696;8.662;2024-01-30T04:41:07;2.27;;;1.87;;
11893;SDS011;6006;49.696;8.662;2024-01-30T04:43:34;1.77;;;1.67;;
11893;SDS011;6006;49.696;8.662;2024-01-30T04:46:01;2.63;;;1.80;;
11893;SDS011;6006;49.696;8.662;2024-01-30T04:48:28;1.43;;;1.30;;
11893;SDS011;6006;49.696;8.662;2024-01-30T04:50:54;2.03;;;1.50;;
11893;SDS011;6006;49.696;8.662;2024-01-30T04:53:21;1.67;;;1.53;;
11893;SDS011;6006;49.696;8.662;2024-01-30T04:55:49;1.77;;;1.40;;
11893;SDS011;6006;49.696;8.662;2024-01-30T04:58:16;1.83;;;1.60;;
11893;SDS011;6006;49.696;8.662;2024-01-30T05:00:43;1.57;;;1.40;;
11893;SDS011;6006;49.696;8.662;2024-01-30T05:03:11;1.90;;;1.80;;
11893;SDS011;6006;49.696;8.662;2024-01-30T05:05:38;2.07;;;1.80;;
11893;SDS011;6006;49.696;8.662;2024-01-30T05:08:05;4.17;;;1.83;;
11893;SDS011;6006;49.696;8.662;2024-01-30T05:10:32;2.00;;;1.73;;
11893;SDS011;6006;49.696;8.662;2024-01-30T05:13:00;2.10;;;1.97;;
11893;SDS011;6006;49.696;8.662;2024-01-30T05:15:27;2.40;;;1.97;;
11893;SDS011;6006;49.696;8.662;2024-01-30T05:17:54;2.50;;;2.27;;
11893;SDS011;6006;49.696;8.662;2024-01-30T05:20:21;2.63;;;1.97;;
11893;SDS011;6006;49.696;8.662;2024-01-30T05:22:48;4.43;;;3.17;;
11893;SDS011;6006;49.696;8.662;2024-01-30T05:25:15;2.60;;;2.40;;
11893;SDS011;6006;49.696;8.662;2024-01-30T05:27:42;1.80;;;1.70;;
11893;SDS011;6006;49.696;8.662;2024-01-30T05:30:10;2.47;;;2.07;;
11893;SDS011;6006;49.696;8.662;2024-01-30T05:32:38;2.40;;;2.20;;
11893;SDS011;6006;49.696;8.662;2024-01-30T05:35:05;2.97;;;2.00;;
11893;SDS011;6006;49.696;8.662;2024-01-30T05:37:32;3.13;;;2.23;;
11893;SDS011;6006;49.696;8.662;2024-01-30T05:39:59;2.23;;;1.97;;
11893;SDS011;6006;49.696;8.662;2024-01-30T05:42:26;2.13;;;1.93;;
11893;SDS011;6006;49.696;8.662;2024-01-30T05:44:53;3.20;;;2.70;;
11893;SDS011;6006;49.696;8.662;2024-01-30T05:47:21;2.37;;;1.63;;
11893;SDS011;6006;49.696;8.662;2024-01-30T05:49:48;3.50;;;2.47;;
11893;SDS011;6006;49.696;8.662;2024-01-30T05:52:15;2.17;;;1.90;;
11893;SDS011;6006;49.696;8.662;2024-01-30T05:54:43;3.20;;;2.07;;
11893;SDS011;6006;49.696;8.662;2024-01-30T05:57:10;6.50;;;3.27;;
11893;SDS011;6006;49.696;8.662;2024-01-30T05:59:37;3.70;;;2.30;;
11893;SDS011;6006;49.696;8.662;2024-01-30T06:02:04;2.43;;;2.20;;
11893;SDS011;6006;49.696;8.662;2024-01-30T06:04:32;2.27;;;2.07;;
11893;SDS011;6006;49.696;8.662;2024-01-30T06:06:59;3.50;;;2.27;;
11893;SDS011;6006;49.696;8.662;2024-01-30T06:09:27;4.70;;;3.47;;
11893;SDS011;6006;49.696;8.662;2024-01-30T06:11:54;4.40;;;2.40;;
11893;SDS011;6006;49.696;8.662;2024-01-30T06:14:21;3.03;;;2.73;;
11893;SDS011;6006;49.696;8.662;2024-01-30T06:16:48;3.23;;;2.83;;
11893;SDS011;6006;49.696;8.662;2024-01-30T06:19:15;2.53;;;2.27;;
11893;SDS011;6006;49.696;8.662;2024-01-30T06:21:43;3.50;;;3.10;;
11893;SDS011;6006;49.696;8.662;2024-01-30T06:24:10;3.97;;;3.00;;
11893;SDS011;6006;49.696;8.662;2024-01-30T06:26:37;8.33;;;2.43;;
11893;SDS011;6006;49.696;8.662;2024-01-30T06:29:04;3.80;;;3.00;;
11893;SDS011;6006;49.696;8.662;2024-01-30T06:31:31;4.70;;;2.90;;
11893;SDS011;6006;49.696;8.662;2024-01-30T06:33:57;4.80;;;3.50;;
11893;SDS011;6006;49.696;8.662;2024-01-30T06:36:24;4.50;;;3.20;;
11893;SDS011;6006;49.696;8.662;2024-01-30T06:38:52;4.83;;;2.87;;
11893;SDS011;6006;49.696;8.662;2024-01-30T06:41:19;4.53;;;3.47;;
11893;SDS011;6006;49.696;8.662;2024-01-30T06:43:46;6.37;;;3.93;;
11893;SDS011;6006;49.696;8.662;2024-01-30T06:46:13;9.07;;;3.33;;
11893;SDS011;6006;49.696;8.662;2024-01-30T06:48:40;6.47;;;4.17;;
11893;SDS011;6006;49.696;8.662;2024-01-30T06:51:09;4.23;;;3.83;;
11893;SDS011;6006;49.696;8.662;2024-01-30T06:53:37;5.77;;;3.77;;
11893;SDS011;6006;49.696;8.662;2024-01-30T06:56:05;5.40;;;4.20;;
11893;SDS011;6006;49.696;8.662;2024-01-30T06:58:32;9.13;;;4.23;;
11893;SDS011;6006;49.696;8.662;2024-01-30T07:00:59;3.83;;;3.47;;
11893;SDS011;6006;49.696;8.662;2024-01-30T07:03:27;3.80;;;3.43;;
11893;SDS011;6006;49.696;8.662;2024-01-30T07:05:53;5.93;;;3.87;;
11893;SDS011;6006;49.696;8.662;2024-01-30T07:08:20;9.03;;;4.40;;
11893;SDS011;6006;49.696;8.662;2024-01-30T07:10:47;4.47;;;3.83;;
11893;SDS011;6006;49.696;8.662;2024-01-30T07:13:16;3.73;;;3.43;;
11893;SDS011;6006;49.696;8.662;2024-01-30T07:15:45;5.30;;;3.73;;
11893;SDS011;6006;49.696;8.662;2024-01-30T07:18:11;10.67;;;5.90;;
11893;SDS011;6006;49.696;8.662;2024-01-30T07:20:39;11.37;;;5.70;;
11893;SDS011;6006;49.696;8.662;2024-01-30T07:23:11;6.87;;;4.53;;
11893;SDS011;6006;49.696;8.662;2024-01-30T07:25:39;4.17;;;3.73;;
11893;SDS011;6006;49.696;8.662;2024-01-30T07:28:06;6.53;;;4.57;;
11893;SDS011;6006;49.696;8.662;2024-01-30T07:30:35;7.80;;;4.83;;
11893;SDS011;6006;49.696;8.662;2024-01-30T07:33:02;4.57;;;4.10;;
11893;SDS011;6006;49.696;8.662;2024-01-30T07:35:29;6.07;;;4.43;;
11893;SDS011;6006;49.696;8.662;2024-01-30T07:37:56;7.50;;;4.23;;
11893;SDS011;6006;49.696;8.662;2024-01-30T07:40:23;8.63;;;5.70;;
11893;SDS011;6006;49.696;8.662;2024-01-30T07:42:50;7.23;;;5.13;;
11893;SDS011;6006;49.696;8.662;2024-01-30T07:45:17;8.33;;;4.80;;
11893;SDS011;6006;49.696;8.662;2024-01-30T07:47:48;4.90;;;4.07;;
11893;SDS011;6006;49.696;8.662;2024-01-30T07:50:15;7.93;;;5.30;;
11893;SDS011;6006;49.696;8.662;2024-01-30T07:52:42;8.20;;;5.40;;
11893;SDS011;6006;49.696;8.662;2024-01-30T07:55:09;6.87;;;4.93;;
11893;SDS011;6006;49.696;8.662;2024-01-30T07:57:38;7.67;;;5.23;;
11893;SDS011;6006;49.696;8.662;2024-01-30T08:00:05;5.07;;;4.53;;
11893;SDS011;6006;49.696;8.662;2024-01-30T08:02:33;5.40;;;4.80;;
11893;SDS011;6006;49.696;8.662;2024-01-30T08:05:01;6.60;;;4.90;;
11893;SDS011;6006;49.696;8.662;2024-01-30T08:07:28;9.70;;;5.83;;
11893;SDS011;6006;49.696;8.662;2024-01-30T08:09:56;11.17;;;5.90;;
11893;SDS011;6006;49.696;8.662;2024-01-30T08:12:22;5.97;;;5.27;;
11893;SDS011;6006;49.696;8.662;2024-01-30T08:14:49;9.37;;;5.40;;
11893;SDS011;6006;49.696;8.662;2024-01-30T08:17:16;11.43;;;6.27;;
11893;SDS011;6006;49.696;8.662;2024-01-30T08:19:43;8.03;;;5.30;;
11893;SDS011;6006;49.696;8.662;2024-01-30T08:22:12;6.37;;;5.20;;
11893;SDS011;6006;49.696;8.662;2024-01-30T08:24:38;7.20;;;5.37;;
11893;SDS011;6006;49.696;8.662;2024-01-30T08:27:07;5.47;;;4.80;;
11893;SDS011;6006;49.696;8.662;2024-01-30T08:29:34;5.30;;;4.77;;
11893;SDS011;6006;49.696;8.662;2024-01-30T08:32:01;7.33;;;5.27;;
11893;SDS011;6006;49.696;8.662;2024-01-30T08:34:28;6.63;;;4.70;;
11893;SDS011;6006;49.696;8.662;2024-01-30T08:36:55;5.30;;;3.80;;
11893;SDS011;6006;49.696;8.662;2024-01-30T08:39:23;10.13;;;4.10;;
11893;SDS011;6006;49.696;8.662;2024-01-30T08:41:50;4.60;;;3.60;;
11893;SDS011;6006;49.696;8.662;2024-01-30T08:44:17;6.87;;;4.23;;
11893;SDS011;6006;49.696;8.662;2024-01-30T08:46:44;5.27;;;3.80;;
11893;SDS011;6006;49.696;8.662;2024-01-30T08:49:11;6.73;;;4.13;;
11893;SDS011;6006;49.696;8.662;2024-01-30T08:51:39;5.63;;;4.23;;
11893;SDS011;6006;49.696;8.662;2024-01-30T08:54:06;6.47;;;4.40;;
11893;SDS011;6006;49.696;8.662;2024-01-30T08:56:34;5.03;;;3.43;;
11893;SDS011;6006;49.696;8.662;2024-01-30T08:59:01;4.90;;;3.43;;
11893;SDS011;6006;49.696;8.662;2024-01-30T09:01:28;5.33;;;4.20;;
11893;SDS011;6006;49.696;8.662;2024-01-30T09:03:55;5.70;;;4.43;;
11893;SDS011;6006;49.696;8.662;2024-01-30T09:06:22;8.67;;;4.27;;
11893;SDS011;6006;49.696;8.662;2024-01-30T09:08:51;4.73;;;3.57;;
11893;SDS011;6006;49.696;8.662;2024-01-30T09:11:18;5.93;;;4.27;;
11893;SDS011;6006;49.696;8.662;2024-01-30T09:13:47;5.00;;;4.00;;
11893;SDS011;6006;49.696;8.662;2024-01-30T09:16:14;6.30;;;4.40;;
11893;SDS011;6006;49.696;8.662;2024-01-30T09:18:42;6.50;;;4.70;;
11893;SDS011;6006;49.696;8.662;2024-01-30T09:21:09;6.93;;;4.53;;
11893;SDS011;6006;49.696;8.662;2024-01-30T09:23:36;7.77;;;4.67;;
11893;SDS011;6006;49.696;8.662;2024-01-30T09:26:03;6.23;;;4.50;;
11893;SDS011;6006;49.696;8.662;2024-01-30T09:28:30;7.00;;;5.30;;
11893;SDS011;6006;49.696;8.662;2024-01-30T09:30:58;6.27;;;4.63;;
11893;SDS011;6006;49.696;8.662;2024-01-30T09:33:25;5.97;;;5.37;;
11893;SDS011;6006;49.696;8.662;2024-01-30T09:35:52;5.67;;;4.00;;
11893;SDS011;6006;49.696;8.662;2024-01-30T09:38:19;6.27;;;4.77;;
11893;SDS011;6006;49.696;8.662;2024-01-30T09:40:46;8.63;;;5.17;;
11893;SDS011;6006;49.696;8.662;2024-01-30T09:43:20;7.50;;;4.47;;
11893;SDS011;6006;49.696;8.662;2024-01-30T09:45:50;7.57;;;4.80;;
11893;SDS011;6006;49.696;8.662;2024-01-30T09:48:18;5.13;;;4.17;;
11893;SDS011;6006;49.696;8.662;2024-01-30T09:50:46;9.07;;;6.07;;
11893;SDS011;6006;49.696;8.662;2024-01-30T09:53:13;5.50;;;4.70;;
11893;SDS011;6006;49.696;8.662;2024-01-30T09:55:42;6.80;;;4.67;;
11893;SDS011;6006;49.696;8.662;2024-01-30T09:58:11;8.20;;;4.87;;
11893;SDS011;6006;49.696;8.662;2024-01-30T10:00:38;6.53;;;5.47;;
11893;SDS011;6006;49.696;8.662;2024-01-30T10:03:05;12.80;;;5.33;;
11893;SDS011;6006;49.696;8.662;2024-01-30T10:05:33;8.97;;;4.97;;
11893;SDS011;6006;49.696;8.662;2024-01-30T10:08:05;9.77;;;5.70;;
11893;SDS011;6006;49.696;8.662;2024-01-30T10:10:33;6.40;;;5.40;;
11893;SDS011;6006;49.696;8.662;2024-01-30T10:13:00;7.20;;;4.93;;
11893;SDS011;6006;49.696;8.662;2024-01-30T10:15:27;6.00;;;5.30;;
11893;SDS011;6006;49.696;8.662;2024-01-30T10:17:54;10.47;;;5.53;;
11893;SDS011;6006;49.696;8.662;2024-01-30T10:20:21;6.47;;;4.53;;
11893;SDS011;6006;49.696;8.662;2024-01-30T10:22:52;6.83;;;3.87;;
11893;SDS011;6006;49.696;8.662;2024-01-30T10:25:19;4.83;;;3.93;;
11893;SDS011;6006;49.696;8.662;2024-01-30T10:27:52;3.80;;;3.50;;
11893;SDS011;6006;49.696;8.662;2024-01-30T10:30:20;4.23;;;3.73;;
11893;SDS011;6006;49.696;8.662;2024-01-30T10:32:47;4.47;;;3.13;;
11893;SDS011;6006;49.696;8.662;2024-01-30T10:35:13;4.33;;;3.47;;
11893;SDS011;6006;49.696;8.662;2024-01-30T10:37:41;4.70;;;3.20;;
11893;SDS011;6006;49.696;8.662;2024-01-30T10:40:12;5.13;;;3.20;;
11893;SDS011;6006;49.696;8.662;2024-01-30T10:42:42;4.03;;;2.90;;
11893;SDS011;6006;49.696;8.662;2024-01-30T10:45:10;3.57;;;3.27;;
11893;SDS011;6006;49.696;8.662;2024-01-30T10:47:39;3.67;;;2.90;;
11893;SDS011;6006;49.696;8.662;2024-01-30T10:50:07;3.70;;;3.30;;
11893;SDS011;6006;49.696;8.662;2024-01-30T10:52:35;4.50;;;2.80;;
11893;SDS011;6006;49.696;8.662;2024-01-30T10:55:04;3.67;;;3.30;;
11893;SDS011;6006;49.696;8.662;2024-01-30T10:57:34;3.07;;;2.87;;
11893;SDS011;6006;49.696;8.662;2024-01-30T11:00:02;5.03;;;3.53;;
11893;SDS011;6006;49.696;8.662;2024-01-30T11:02:35;5.57;;;3.50;;
11893;SDS011;6006;49.696;8.662;2024-01-30T11:05:04;5.03;;;3.90;;
11893;SDS011;6006;49.696;8.662;2024-01-30T11:07:31;5.23;;;3.57;;
11893;SDS011;6006;49.696;8.662;2024-01-30T11:10:02;4.37;;;3.30;;
11893;SDS011;6006;49.696;8.662;2024-01-30T11:12:30;4.03;;;3.70;;
11893;SDS011;6006;49.696;8.662;2024-01-30T11:15:04;5.13;;;3.50;;
11893;SDS011;6006;49.696;8.662;2024-01-30T11:17:42;4.17;;;3.77;;
11893;SDS011;6006;49.696;8.662;2024-01-30T11:20:09;5.07;;;4.57;;
11893;SDS011;6006;49.696;8.662;2024-01-30T11:22:40;5.40;;;4.03;;
11893;SDS011;6006;49.696;8.662;2024-01-30T11:25:11;4.60;;;3.30;;
11893;SDS011;6006;49.696;8.662;2024-01-30T11:27:38;7.03;;;4.10;;
11893;SDS011;6006;49.696;8.662;2024-01-30T11:30:08;5.10;;;3.83;;
11893;SDS011;6006;49.696;8.662;2024-01-30T11:32:35;3.80;;;3.13;;
11893;SDS011;6006;49.696;8.662;2024-01-30T11:35:03;5.83;;;3.30;;
11893;SDS011;6006;49.696;8.662;2024-01-30T11:37:31;6.77;;;4.43;;
11893;SDS011;6006;49.696;8.662;2024-01-30T11:40:02;5.57;;;3.77;;
11893;SDS011;6006;49.696;8.662;2024-01-30T11:42:30;3.50;;;3.10;;
11893;SDS011;6006;49.696;8.662;2024-01-30T11:44:59;6.40;;;3.63;;
11893;SDS011;6006;49.696;8.662;2024-01-30T11:47:28;3.70;;;3.13;;
11893;SDS011;6006;49.696;8.662;2024-01-30T11:49:55;4.77;;;3.50;;
11893;SDS011;6006;49.696;8.662;2024-01-30T11:52:22;4.93;;;3.30;;
11893;SDS011;6006;49.696;8.662;2024-01-30T11:54:49;4.87;;;3.53;;
11893;SDS011;6006;49.696;8.662;2024-01-30T11:57:16;5.30;;;3.63;;
11893;SDS011;6006;49.696;8.662;2024-01-30T11:59:43;3.93;;;3.53;;
11893;SDS011;6006;49.696;8.662;2024-01-30T12:02:14;4.40;;;3.40;;
11893;SDS011;6006;49.696;8.662;2024-01-30T12:04:43;5.37;;;3.00;;
11893;SDS011;6006;49.696;8.662;2024-01-30T12:07:10;3.50;;;3.20;;
11893;SDS011;6006;49.696;8.662;2024-01-30T12:09:37;5.47;;;3.33;;
11893;SDS011;6006;49.696;8.662;2024-01-30T12:12:06;4.40;;;3.97;;
11893;SDS011;6006;49.696;8.662;2024-01-30T12:14:37;4.30;;;3.10;;
11893;SDS011;6006;49.696;8.662;2024-01-30T12:17:04;5.27;;;4.27;;
11893;SDS011;6006;49.696;8.662;2024-01-30T12:19:32;5.20;;;3.73;;
11893;SDS011;6006;49.696;8.662;2024-01-30T12:22:01;3.30;;;2.90;;
11893;SDS011;6006;49.696;8.662;2024-01-30T12:24:28;3.80;;;3.40;;
11893;SDS011;6006;49.696;8.662;2024-01-30T12:26:56;3.93;;;2.90;;
11893;SDS011;6006;49.696;8.662;2024-01-30T12:29:23;7.67;;;4.90;;
11893;SDS011;6006;49.696;8.662;2024-01-30T12:31:52;6.00;;;3.70;;
11893;SDS011;6006;49.696;8.662;2024-01-30T12:34:19;4.07;;;3.63;;
11893;SDS011;6006;49.696;8.662;2024-01-30T12:36:46;4.60;;;3.63;;
11893;SDS011;6006;49.696;8.662;2024-01-30T12:39:16;3.70;;;3.37;;
11893;SDS011;6006;49.696;8.662;2024-01-30T12:41:43;4.43;;;3.80;;
11893;SDS011;6006;49.696;8.662;2024-01-30T12:44:10;6.73;;;3.40;;
11893;SDS011;6006;49.696;8.662;2024-01-30T12:46:39;3.07;;;2.80;;
11893;SDS011;6006;49.696;8.662;2024-01-30T12:49:06;4.37;;;3.70;;
11893;SDS011;6006;49.696;8.662;2024-01-30T12:51:33;5.13;;;4.20;;
11893;SDS011;6006;49.696;8.662;2024-01-30T12:54:04;4.20;;;3.77;;
11893;SDS011;6006;49.696;8.662;2024-01-30T12:56:33;5.87;;;3.70;;
11893;SDS011;6006;49.696;8.662;2024-01-30T12:59:00;4.20;;;3.53;;
11893;SDS011;6006;49.696;8.662;2024-01-30T13:01:26;4.23;;;3.80;;
11893;SDS011;6006;49.696;8.662;2024-01-30T13:03:53;4.00;;;3.50;;
11893;SDS011;6006;49.696;8.662;2024-01-30T13:06:22;4.13;;;3.67;;
11893;SDS011;6006;49.696;8.662;2024-01-30T13:08:49;4.83;;;3.97;;
11893;SDS011;6006;49.696;8.662;2024-01-30T13:11:16;4.70;;;3.37;;
11893;SDS011;6006;49.696;8.662;2024-01-30T13:13:44;4.37;;;3.77;;
11893;SDS011;6006;49.696;8.662;2024-01-30T13:16:11;4.43;;;3.73;;
11893;SDS011;6006;49.696;8.662;2024-01-30T13:18:38;5.83;;;3.60;;
11893;SDS011;6006;49.696;8.662;2024-01-30T13:21:05;4.90;;;3.90;;
11893;SDS011;6006;49.696;8.662;2024-01-30T13:23:32;4.70;;;4.10;;
11893;SDS011;6006;49.696;8.662;2024-01-30T13:25:59;4.70;;;3.87;;
11893;SDS011;6006;49.696;8.662;2024-01-30T13:28:26;4.10;;;3.53;;
11893;SDS011;6006;49.696;8.662;2024-01-30T13:30:54;5.00;;;3.93;;
11893;SDS011;6006;49.696;8.662;2024-01-30T13:33:21;5.43;;;3.60;;
11893;SDS011;6006;49.696;8.662;2024-01-30T13:35:48;4.80;;;3.60;;
11893;SDS011;6006;49.696;8.662;2024-01-30T13:38:15;6.40;;;4.43;;
11893;SDS011;6006;49.696;8.662;2024-01-30T13:40:42;4.97;;;3.47;;
11893;SDS011;6006;49.696;8.662;2024-01-30T13:43:09;5.73;;;3.90;;
11893;SDS011;6006;49.696;8.662;2024-01-30T13:45:36;5.13;;;3.93;;
11893;SDS011;6006;49.696;8.662;2024-01-30T13:48:04;5.30;;;4.77;;
11893;SDS011;6006;49.696;8.662;2024-01-30T13:50:32;4.67;;;4.03;;
11893;SDS011;6006;49.696;8.662;2024-01-30T13:52:59;5.10;;;3.47;;
11893;SDS011;6006;49.696;8.662;2024-01-30T13:55:26;4.07;;;3.50;;
11893;SDS011;6006;49.696;8.662;2024-01-30T13:57:53;4.90;;;3.90;;
11893;SDS011;6006;49.696;8.662;2024-01-30T14:00:20;6.13;;;3.80;;
11893;SDS011;6006;49.696;8.662;2024-01-30T14:02:48;6.63;;;4.20;;
11893;SDS011;6006;49.696;8.662;2024-01-30T14:05:16;4.33;;;3.93;;
11893;SDS011;6006;49.696;8.662;2024-01-30T14:07:43;3.50;;;3.20;;
11893;SDS011;6006;49.696;8.662;2024-01-30T14:10:10;5.80;;;3.57;;
11893;SDS011;6006;49.696;8.662;2024-01-30T14:12:38;6.63;;;3.70;;
11893;SDS011;6006;49.696;8.662;2024-01-30T14:15:06;3.80;;;3.23;;
11893;SDS011;6006;49.696;8.662;2024-01-30T14:17:34;3.33;;;3.10;;
11893;SDS011;6006;49.696;8.662;2024-01-30T14:20:01;5.83;;;3.77;;
11893;SDS011;6006;49.696;8.662;2024-01-30T14:22:31;4.47;;;3.50;;
11893;SDS011;6006;49.696;8.662;2024-01-30T14:24:58;5.30;;;3.53;;
11893;SDS011;6006;49.696;8.662;2024-01-30T14:27:25;4.53;;;3.43;;
11893;SDS011;6006;49.696;8.662;2024-01-30T14:29:52;4.43;;;3.40;;
11893;SDS011;6006;49.696;8.662;2024-01-30T14:32:19;4.87;;;3.47;;
11893;SDS011;6006;49.696;8.662;2024-01-30T14:34:46;4.83;;;2.80;;
11893;SDS011;6006;49.696;8.662;2024-01-30T14:37:13;3.63;;;2.90;;
11893;SDS011;6006;49.696;8.662;2024-01-30T14:39:42;4.43;;;3.73;;
11893;SDS011;6006;49.696;8.662;2024-01-30T14:42:08;3.20;;;2.90;;
11893;SDS011;6006;49.696;8.662;2024-01-30T14:44:35;3.77;;;3.33;;
11893;SDS011;6006;49.696;8.662;2024-01-30T14:47:02;4.13;;;3.03;;
11893;SDS011;6006;49.696;8.662;2024-01-30T14:49:29;5.07;;;3.03;;
11893;SDS011;6006;49.696;8.662;2024-01-30T14:51:56;4.37;;;2.97;;
11893;SDS011;6006;49.696;8.662;2024-01-30T14:54:24;4.23;;;3.57;;
11893;SDS011;6006;49.696;8.662;2024-01-30T14:56:52;3.80;;;3.30;;
11893;SDS011;6006;49.696;8.662;2024-01-30T14:59:19;4.23;;;2.97;;
11893;SDS011;6006;49.696;8.662;2024-01-30T15:01:46;3.30;;;2.90;;